createdAt,value
2023-04-06T00:00:38.868Z,1.43
2023-04-06T00:03:40.992Z,1.46
2023-04-06T00:06:46.400Z,1.60
2023-04-06T00:09:49.457Z,1.69
2023-04-06T00:12:51.259Z,1.79
2023-04-06T00:15:53.125Z,1.87
2023-04-06T00:18:55.152Z,1.89
2023-04-06T00:21:57.359Z,1.85
2023-04-06T00:25:09.959Z,2.02
2023-04-06T00:28:11.746Z,2.17
2023-04-06T00:31:13.809Z,2.45
2023-04-06T00:34:16.933Z,2.56
2023-04-06T00:37:21.768Z,2.54
2023-04-06T00:40:25.634Z,2.92
2023-04-06T00:43:27.745Z,2.59
2023-04-06T00:46:29.945Z,3.04
2023-04-06T00:49:33.703Z,2.60
2023-04-06T00:52:36.865Z,2.47
2023-04-06T00:55:41.933Z,2.42
2023-04-06T00:58:44.473Z,2.31
2023-04-06T01:01:46.466Z,2.11
2023-04-06T01:05:09.180Z,1.95
2023-04-06T01:08:23.593Z,1.92
2023-04-06T01:11:30.993Z,1.71
2023-04-06T01:14:33.011Z,1.59
2023-04-06T01:17:36.250Z,1.58
2023-04-06T01:20:45.879Z,1.51
2023-04-06T01:23:51.359Z,1.42
2023-04-06T01:27:00.006Z,1.38
2023-04-06T01:30:08.282Z,1.31
2023-04-06T01:33:19.063Z,1.24
2023-04-06T01:36:50.227Z,1.13
2023-04-06T01:40:03.554Z,1.00
2023-04-06T01:43:16.858Z,0.86
2023-04-06T01:46:32.723Z,0.76
2023-04-06T01:49:36.736Z,0.79
2023-04-06T01:52:39.212Z,0.77
2023-04-06T01:55:42.782Z,0.84
2023-04-06T01:59:08.088Z,0.83
2023-04-06T02:02:15.069Z,0.85
2023-04-06T02:05:26.076Z,0.76
2023-04-06T02:08:29.159Z,0.77
2023-04-06T02:11:32.598Z,0.70
2023-04-06T02:14:34.905Z,0.62
2023-04-06T02:17:36.932Z,0.62
2023-04-06T02:20:38.669Z,0.73
2023-04-06T02:23:40.453Z,0.69
2023-04-06T02:26:43.727Z,0.64
2023-04-06T02:29:45.467Z,0.63
2023-04-06T02:32:47.536Z,0.46
2023-04-06T02:35:49.451Z,0.57
2023-04-06T02:38:51.478Z,0.53
2023-04-06T02:41:54.580Z,0.53
2023-04-06T02:44:59.269Z,0.68
2023-04-06T02:48:06.504Z,0.42
2023-04-06T02:51:08.704Z,0.45
2023-04-06T02:54:11.872Z,0.36
2023-04-06T02:57:14.972Z,0.22
2023-04-06T03:00:20.623Z,0.15
2023-04-06T03:03:22.732Z,0.03
2023-04-06T03:06:24.824Z,0.03
2023-04-06T03:09:30.547Z,-0.08
2023-04-06T03:12:33.754Z,-0.06
2023-04-06T03:15:54.196Z,-0.16
2023-04-06T03:18:57.547Z,-0.22
2023-04-06T03:21:59.501Z,-0.09
2023-04-06T03:25:03.617Z,-0.17
2023-04-06T03:28:08.609Z,-0.11
2023-04-06T03:31:16.969Z,-0.30
2023-04-06T03:34:29.347Z,-0.27
2023-04-06T03:37:31.197Z,-0.09
2023-04-06T03:40:37.081Z,0.06
2023-04-06T03:43:40.550Z,-0.24
2023-04-06T03:46:42.534Z,-0.24
2023-04-06T03:49:45.582Z,-0.28
2023-04-06T03:52:48.824Z,-0.32
2023-04-06T03:55:50.546Z,-0.37
2023-04-06T03:58:53.726Z,-0.27
2023-04-06T04:01:56.453Z,-0.24
2023-04-06T04:04:58.981Z,-0.27
2023-04-06T04:08:00.713Z,-0.33
2023-04-06T04:11:02.860Z,-0.22
2023-04-06T04:14:06.011Z,-0.37
2023-04-06T04:17:07.786Z,-0.29
2023-04-06T04:20:10.016Z,-0.31
2023-04-06T04:23:11.842Z,-0.40
2023-04-06T04:26:13.728Z,-0.32
2023-04-06T04:29:17.645Z,-0.27
2023-04-06T04:32:20.089Z,-0.36
2023-04-06T04:35:22.634Z,-0.53
2023-04-06T04:38:25.164Z,-0.37
2023-04-06T04:41:29.619Z,-0.21
2023-04-06T04:44:33.921Z,-0.03
2023-04-06T04:47:36.668Z,0.15
2023-04-06T04:50:40.148Z,0.18
2023-04-06T04:53:42.031Z,0.39
2023-04-06T04:56:53.159Z,0.36
2023-04-06T05:00:11.091Z,0.29
2023-04-06T05:03:21.520Z,0.01
2023-04-06T05:06:30.804Z,0.05
2023-04-06T05:09:33.100Z,0.01
2023-04-06T05:12:35.614Z,-0.01
2023-04-06T05:15:43.478Z,-0.01
2023-04-06T05:19:05.912Z,-0.07
2023-04-06T05:22:17.114Z,-0.23
2023-04-06T05:25:22.171Z,-0.33
2023-04-06T05:28:27.070Z,-0.24
2023-04-06T05:31:31.052Z,-0.29
2023-04-06T05:34:33.919Z,-0.19
2023-04-06T05:37:40.171Z,-0.02
2023-04-06T05:40:43.601Z,-0.07
2023-04-06T05:43:49.629Z,-0.08
2023-04-06T05:46:53.048Z,-0.08
2023-04-06T05:49:54.836Z,0.15
2023-04-06T05:53:07.480Z,0.14
2023-04-06T05:56:15.828Z,0.14
2023-04-06T05:59:18.648Z,0.13
2023-04-06T06:02:22.904Z,0.11
2023-04-06T06:05:26.936Z,0.22
2023-04-06T06:08:30.150Z,0.29
2023-04-06T06:11:34.094Z,0.22
2023-04-06T06:14:36.737Z,0.32
2023-04-06T06:17:40.138Z,0.35
2023-04-06T06:20:42.276Z,0.52
2023-04-06T06:23:44.414Z,0.56
2023-04-06T06:26:50.289Z,0.68
2023-04-06T06:29:53.945Z,0.86
2023-04-06T06:32:57.283Z,0.90
2023-04-06T06:35:59.809Z,1.23
2023-04-06T06:39:04.147Z,1.25
2023-04-06T06:42:06.604Z,1.27
2023-04-06T06:45:44.843Z,1.39
2023-04-06T06:48:50.063Z,1.51
2023-04-06T06:51:51.906Z,1.71
2023-04-06T06:54:55.476Z,1.83
2023-04-06T06:57:58.849Z,2.48
2023-04-06T07:01:00.883Z,2.94
2023-04-06T07:04:07.332Z,3.11
2023-04-06T07:07:09.614Z,3.52
2023-04-06T07:10:11.580Z,4.00
2023-04-06T07:13:15.621Z,4.48
2023-04-06T07:16:17.853Z,4.70
2023-04-06T07:19:21.228Z,4.77
2023-04-06T07:22:23.130Z,4.80
2023-04-06T07:25:26.047Z,4.91
2023-04-06T07:28:28.067Z,5.14
2023-04-06T07:31:30.847Z,5.28
2023-04-06T07:34:34.397Z,5.30
2023-04-06T07:37:36.837Z,5.48
2023-04-06T07:40:38.841Z,5.56
2023-04-06T07:43:40.862Z,5.66
2023-04-06T07:46:43.263Z,5.85
2023-04-06T07:49:46.712Z,5.92
2023-04-06T07:52:49.319Z,6.04
2023-04-06T07:55:51.294Z,6.03
2023-04-06T07:58:56.479Z,6.28
2023-04-06T08:01:58.313Z,6.21
2023-04-06T08:05:01.606Z,6.37
2023-04-06T08:08:03.867Z,6.56
2023-04-06T08:11:05.807Z,6.65
2023-04-06T08:14:08.026Z,6.71
2023-04-06T08:17:10.518Z,6.86
2023-04-06T08:20:13.797Z,6.92
2023-04-06T08:23:15.625Z,6.80
2023-04-06T08:26:17.564Z,7.06
2023-04-06T08:29:19.647Z,7.15
2023-04-06T08:32:21.617Z,7.34
2023-04-06T08:35:24.841Z,7.73
2023-04-06T08:38:26.713Z,7.56
2023-04-06T08:41:28.767Z,7.58
2023-04-06T08:44:31.458Z,7.77
2023-04-06T08:47:33.277Z,7.74
2023-04-06T08:50:56.638Z,8.08
2023-04-06T08:53:59.940Z,7.97
2023-04-06T08:57:03.478Z,8.06
2023-04-06T09:00:07.309Z,8.14
2023-04-06T09:03:09.759Z,8.35
2023-04-06T09:06:14.404Z,8.54
2023-04-06T09:09:16.393Z,8.47
2023-04-06T09:12:27.386Z,8.61
2023-04-06T09:15:29.051Z,8.74
2023-04-06T09:18:31.931Z,8.73
2023-04-06T09:21:35.309Z,8.99
2023-04-06T09:24:41.622Z,9.37
2023-04-06T09:27:45.436Z,9.26
2023-04-06T09:30:49.988Z,9.30
2023-04-06T09:33:55.470Z,9.57
2023-04-06T09:36:59.522Z,9.72
2023-04-06T09:40:04.221Z,9.52
2023-04-06T09:43:07.976Z,9.75
2023-04-06T09:46:09.921Z,9.77
2023-04-06T09:49:13.030Z,9.77
2023-04-06T09:52:17.728Z,10.02
2023-04-06T09:55:24.900Z,10.28
2023-04-06T09:58:27.747Z,10.46
2023-04-06T10:01:32.365Z,10.42
2023-04-06T10:04:42.355Z,10.80
2023-04-06T10:07:59.558Z,10.46
2023-04-06T10:11:03.740Z,10.87
2023-04-06T10:14:06.444Z,10.71
2023-04-06T10:17:08.417Z,10.87
2023-04-06T10:20:16.910Z,11.19
2023-04-06T10:23:27.720Z,11.30
2023-04-06T10:26:29.616Z,11.19
2023-04-06T10:29:44.031Z,10.62
2023-04-06T10:32:47.692Z,11.30
2023-04-06T10:35:50.397Z,10.93
2023-04-06T10:38:59.752Z,11.69
2023-04-06T10:42:07.591Z,11.49
2023-04-06T10:45:21.264Z,11.63
2023-04-06T10:48:23.269Z,11.97
2023-04-06T10:51:29.481Z,11.97
2023-04-06T10:54:33.708Z,12.24
2023-04-06T10:57:37.560Z,12.29
2023-04-06T11:03:50.827Z,12.40
2023-04-06T11:06:52.763Z,12.64
2023-04-06T11:10:12.579Z,12.70
2023-04-06T11:13:16.270Z,12.54
2023-04-06T11:16:19.354Z,13.28
2023-04-06T11:19:21.287Z,13.57
2023-04-06T11:22:23.376Z,13.98
2023-04-06T11:25:32.171Z,13.49
2023-04-06T11:28:34.344Z,13.31
2023-04-06T11:31:41.251Z,13.44
2023-04-06T11:34:43.041Z,13.30
2023-04-06T11:37:45.017Z,13.89
2023-04-06T11:40:53.477Z,13.70
2023-04-06T11:43:56.827Z,13.56
2023-04-06T11:46:59.100Z,13.30
2023-04-06T11:50:07.204Z,13.34
2023-04-06T11:53:09.162Z,13.97
2023-04-06T11:56:12.446Z,14.39
2023-04-06T11:59:14.348Z,13.72
2023-04-06T12:02:16.206Z,14.02
2023-04-06T12:05:18.146Z,14.65
2023-04-06T12:08:20.238Z,13.91
2023-04-06T12:11:24.127Z,13.34
2023-04-06T12:14:26.111Z,14.29
2023-04-06T12:17:28.117Z,14.35
2023-04-06T12:20:30.055Z,14.26
2023-04-06T12:23:31.995Z,14.57
2023-04-06T12:26:35.822Z,14.48
2023-04-06T12:29:37.703Z,13.40
2023-04-06T12:32:39.504Z,14.12
2023-04-06T12:35:41.244Z,14.55
2023-04-06T12:38:45.654Z,14.84
2023-04-06T12:41:48.879Z,14.97
2023-04-06T12:44:50.805Z,14.78
2023-04-06T12:47:52.677Z,14.62
2023-04-06T12:50:59.344Z,14.92
2023-04-06T12:54:01.939Z,15.29
2023-04-06T12:57:05.396Z,15.54
2023-04-06T13:00:09.520Z,14.88
2023-04-06T13:03:11.651Z,14.65
2023-04-06T13:06:14.140Z,15.24
2023-04-06T13:09:15.886Z,15.18
2023-04-06T13:12:20.405Z,14.93
2023-04-06T13:15:23.381Z,15.12
2023-04-06T13:18:25.545Z,14.24
2023-04-06T13:21:27.334Z,14.28
2023-04-06T13:24:29.420Z,14.77
2023-04-06T13:27:34.831Z,15.72
2023-04-06T13:30:37.144Z,15.31
2023-04-06T13:33:40.271Z,14.79
2023-04-06T13:36:42.872Z,14.93
2023-04-06T13:39:44.823Z,14.99
2023-04-06T13:42:48.369Z,15.12
2023-04-06T13:45:51.121Z,15.11
2023-04-06T13:48:53.027Z,15.45
2023-04-06T13:51:54.870Z,15.55
2023-04-06T13:54:57.230Z,14.92
2023-04-06T13:58:00.371Z,15.56
2023-04-06T14:01:07.251Z,15.58
2023-04-06T14:04:09.623Z,15.48
2023-04-06T14:07:11.655Z,14.65
2023-04-06T14:10:15.543Z,14.94
2023-04-06T14:13:19.767Z,14.57
2023-04-06T14:16:23.972Z,14.35
2023-04-06T14:19:25.724Z,14.33
2023-04-06T14:22:27.423Z,14.95
2023-04-06T14:25:29.593Z,15.15
2023-04-06T14:28:36.738Z,15.27
2023-04-06T14:31:38.638Z,15.25
2023-04-06T14:34:40.678Z,15.42
2023-04-06T14:37:42.587Z,14.94
2023-04-06T14:40:44.359Z,14.90
2023-04-06T14:43:48.436Z,14.83
2023-04-06T14:46:51.115Z,14.73
2023-04-06T14:49:54.309Z,14.70
2023-04-06T14:52:56.071Z,14.74
2023-04-06T14:55:58.252Z,14.72
2023-04-06T14:59:02.672Z,14.74
2023-04-06T15:02:04.681Z,14.48
2023-04-06T15:05:07.300Z,14.52
2023-04-06T15:08:12.711Z,14.32
2023-04-06T15:11:14.528Z,14.02
2023-04-06T15:14:17.772Z,14.36
2023-04-06T15:17:19.721Z,14.08
2023-04-06T15:20:21.489Z,14.32
2023-04-06T15:23:23.275Z,14.06
2023-04-06T15:26:25.165Z,13.86
2023-04-06T15:29:28.211Z,13.72
2023-04-06T15:32:30.032Z,13.77
2023-04-06T15:35:32.015Z,13.61
2023-04-06T15:38:33.972Z,13.60
2023-04-06T15:41:35.742Z,13.51
2023-04-06T15:44:38.943Z,13.56
2023-04-06T15:47:41.840Z,13.51
2023-04-06T15:50:44.235Z,13.45
2023-04-06T15:53:46.438Z,13.33
2023-04-06T15:56:48.497Z,13.42
2023-04-06T15:59:52.448Z,13.31
2023-04-06T16:02:54.288Z,13.29
2023-04-06T16:06:08.247Z,13.16
2023-04-06T16:09:10.733Z,13.28
2023-04-06T16:12:12.426Z,13.27
2023-04-06T16:15:15.783Z,13.10
2023-04-06T16:18:18.090Z,13.13
2023-04-06T16:21:19.733Z,13.09
2023-04-06T16:24:22.061Z,13.01
2023-04-06T16:27:24.544Z,12.97
2023-04-06T16:30:30.264Z,12.97
2023-04-06T16:33:31.983Z,13.09
2023-04-06T16:36:33.943Z,13.00
2023-04-06T16:39:36.364Z,12.96
2023-04-06T16:42:38.385Z,12.85
2023-04-06T16:45:41.586Z,12.67
2023-04-06T16:48:43.544Z,12.50
2023-04-06T16:51:45.565Z,12.66
2023-04-06T16:54:47.324Z,12.61
2023-04-06T16:57:49.392Z,12.52
2023-04-06T17:00:52.552Z,12.41
2023-04-06T17:03:55.257Z,12.43
2023-04-06T17:06:57.033Z,12.38
2023-04-06T17:10:00.462Z,12.28
2023-04-06T17:13:02.339Z,12.23
2023-04-06T17:16:06.398Z,12.33
2023-04-06T17:19:08.311Z,12.14
2023-04-06T17:22:10.389Z,12.26
2023-04-06T17:25:12.219Z,12.21
2023-04-06T17:28:13.931Z,12.07
2023-04-06T17:31:17.151Z,12.09
2023-04-06T17:34:19.017Z,12.00
2023-04-06T17:37:20.650Z,11.98
2023-04-06T17:40:22.377Z,11.86
2023-04-06T17:43:24.109Z,11.72
2023-04-06T17:46:27.681Z,11.69
2023-04-06T17:49:29.472Z,11.72
2023-04-06T17:52:31.853Z,11.58
2023-04-06T17:55:35.095Z,11.61
2023-04-06T17:58:36.906Z,11.49
2023-04-06T18:01:40.560Z,11.52
2023-04-06T18:04:44.124Z,11.57
2023-04-06T18:07:46.151Z,11.58
2023-04-06T18:10:48.423Z,11.42
2023-04-06T18:13:50.476Z,11.30
2023-04-06T18:16:53.673Z,11.35
2023-04-06T18:19:55.664Z,11.27
2023-04-06T18:22:57.389Z,11.22
2023-04-06T18:25:59.816Z,11.12
2023-04-06T18:29:01.939Z,10.95
2023-04-06T18:32:06.116Z,10.47
2023-04-06T18:35:10.535Z,10.49
2023-04-06T18:38:12.496Z,10.46
2023-04-06T18:41:14.406Z,10.39
2023-04-06T18:44:16.137Z,10.59
2023-04-06T18:47:19.219Z,10.59
2023-04-06T18:50:21.122Z,10.62
2023-04-06T18:53:23.123Z,10.39
2023-04-06T18:56:25.156Z,10.22
2023-04-06T18:59:30.145Z,10.15
2023-04-06T19:02:33.316Z,10.04
2023-04-06T19:05:35.360Z,9.93
2023-04-06T19:08:37.081Z,9.79
2023-04-06T19:11:39.449Z,9.66
2023-04-06T19:14:41.209Z,9.58
2023-04-06T19:17:44.625Z,9.41
2023-04-06T19:20:46.425Z,9.21
2023-04-06T19:23:49.953Z,9.10
2023-04-06T19:26:52.141Z,8.98
2023-04-06T19:29:53.953Z,8.90
2023-04-06T19:32:57.561Z,8.86
2023-04-06T19:35:59.357Z,8.56
2023-04-06T19:39:01.224Z,8.66
2023-04-06T19:42:06.208Z,8.68
2023-04-06T19:45:08.902Z,8.52
2023-04-06T19:48:12.183Z,8.53
2023-04-06T19:51:14.017Z,8.53
2023-04-06T19:54:15.980Z,8.36
2023-04-06T19:57:17.922Z,8.30
2023-04-06T20:00:19.899Z,8.30
2023-04-06T20:03:23.207Z,8.24
2023-04-06T20:06:25.022Z,8.18
2023-04-06T20:09:27.325Z,8.07
2023-04-06T20:12:29.076Z,7.89
2023-04-06T20:15:30.926Z,7.69
2023-04-06T20:18:34.122Z,7.64
2023-04-06T20:21:37.433Z,7.66
2023-04-06T20:24:40.183Z,7.55
2023-04-06T20:27:42.347Z,7.41
2023-04-06T20:34:06.270Z,7.48
2023-04-06T20:37:08.763Z,7.56
2023-04-06T20:40:12.099Z,7.62
2023-04-06T20:43:13.813Z,7.56
2023-04-06T20:46:19.342Z,7.42
2023-04-06T20:49:23.986Z,7.42
2023-04-06T20:52:26.477Z,7.39
2023-04-06T20:55:28.135Z,7.31
2023-04-06T20:58:29.782Z,7.26
2023-04-06T21:01:31.665Z,7.25
2023-04-06T21:04:35.895Z,7.22
2023-04-06T21:07:38.022Z,7.24
2023-04-06T21:10:39.799Z,7.12
2023-04-06T21:13:41.628Z,7.20
2023-04-06T21:16:43.780Z,7.16
2023-04-06T21:19:46.855Z,7.26
2023-04-06T21:22:48.576Z,7.19
2023-04-06T21:25:52.139Z,7.26
2023-04-06T21:28:53.892Z,7.25
2023-04-06T21:31:55.829Z,7.30
2023-04-06T21:34:58.948Z,7.17
2023-04-06T21:38:00.826Z,7.26
2023-04-06T21:41:03.096Z,7.26
2023-04-06T21:44:05.260Z,7.28
2023-04-06T21:47:07.068Z,7.24
2023-04-06T21:50:11.051Z,7.38
2023-04-06T21:53:12.653Z,7.17
2023-04-06T21:56:19.218Z,7.14
2023-04-06T21:59:21.042Z,7.22
2023-04-06T22:02:23.035Z,7.09
2023-04-06T22:05:26.430Z,7.09
2023-04-06T22:08:33.611Z,7.13
2023-04-06T22:11:36.192Z,7.05
2023-04-06T22:14:37.845Z,7.12
2023-04-06T22:17:39.497Z,6.95
2023-04-06T22:20:42.630Z,6.98
2023-04-06T22:23:44.634Z,7.03
2023-04-06T22:26:46.322Z,7.07
2023-04-06T22:29:47.986Z,7.08
2023-04-06T22:32:49.661Z,6.92
2023-04-06T22:35:52.787Z,6.99
2023-04-06T22:38:54.629Z,6.93
2023-04-06T22:41:56.405Z,6.88
2023-04-06T22:44:57.992Z,6.92
2023-04-06T22:48:00.059Z,7.06
2023-04-06T22:51:03.201Z,7.04
2023-04-06T22:54:05.015Z,7.04
2023-04-06T22:57:06.652Z,7.07
2023-04-06T23:00:09.776Z,6.94
2023-04-06T23:03:11.900Z,6.87
2023-04-06T23:06:15.611Z,6.93
2023-04-06T23:09:17.293Z,6.90
2023-04-06T23:12:18.927Z,6.98
2023-04-06T23:15:20.607Z,6.95
2023-04-06T23:18:22.282Z,7.01
2023-04-06T23:21:26.120Z,7.07
2023-04-06T23:24:27.835Z,7.02
2023-04-06T23:27:29.483Z,7.00
2023-04-06T23:30:31.105Z,7.02
2023-04-06T23:33:32.875Z,6.92
2023-04-06T23:36:35.955Z,6.81
2023-04-06T23:39:39.383Z,6.94
2023-04-06T23:42:41.189Z,6.85
2023-04-06T23:45:42.966Z,6.82
2023-04-06T23:48:44.939Z,6.72
2023-04-06T23:51:48.029Z,6.82
2023-04-06T23:54:49.644Z,6.82
2023-04-06T23:57:51.431Z,6.92
